createdAt,value
2023-05-21T00:02:00.004Z,16.50
2023-05-21T00:04:29.577Z,16.40
2023-05-21T00:07:04.215Z,16.20
2023-05-21T00:09:35.841Z,16.20
2023-05-21T00:12:04.157Z,16.10
2023-05-21T00:14:32.065Z,16.00
2023-05-21T00:17:03.129Z,15.90
2023-05-21T00:19:33.676Z,15.90
2023-05-21T00:22:04.456Z,15.80
2023-05-21T00:24:36.527Z,15.70
2023-05-21T00:27:04.595Z,15.70
2023-05-21T00:29:38.354Z,15.60
2023-05-21T00:32:07.128Z,15.70
2023-05-21T00:34:40.685Z,15.60
2023-05-21T00:37:09.959Z,15.70
2023-05-21T00:39:39.342Z,15.70
2023-05-21T00:42:07.295Z,15.80
2023-05-21T00:44:35.378Z,15.80
2023-05-21T00:47:04.257Z,15.80
2023-05-21T00:49:32.409Z,15.80
2023-05-21T00:52:01.454Z,15.90
2023-05-21T00:54:35.582Z,15.90
2023-05-21T00:57:08.525Z,15.90
2023-05-21T00:59:36.446Z,15.90
2023-05-21T01:02:06.666Z,16.00
2023-05-21T01:04:36.844Z,16.00
2023-05-21T01:07:14.476Z,16.10
2023-05-21T01:09:43.362Z,16.10
2023-05-21T01:12:16.090Z,16.10
2023-05-21T01:14:49.180Z,16.10
2023-05-21T01:17:24.312Z,16.00
2023-05-21T01:19:54.552Z,16.10
2023-05-21T01:22:24.875Z,16.00
2023-05-21T01:24:55.787Z,16.00
2023-05-21T01:27:28.968Z,16.00
2023-05-21T01:29:57.433Z,15.90
2023-05-21T01:32:28.944Z,15.90
2023-05-21T01:35:01.875Z,15.80
2023-05-21T01:37:37.654Z,15.80
2023-05-21T01:40:12.309Z,15.80
2023-05-21T01:42:44.155Z,15.70
2023-05-21T01:45:23.477Z,15.70
2023-05-21T01:47:54.946Z,15.70
2023-05-21T01:50:26.857Z,15.70
2023-05-21T01:52:58.548Z,15.80
2023-05-21T01:55:30.667Z,15.90
2023-05-21T01:58:04.458Z,15.90
2023-05-21T02:00:32.667Z,15.90
2023-05-21T02:03:00.737Z,15.90
2023-05-21T02:05:28.727Z,15.80
2023-05-21T02:08:00.011Z,15.80
2023-05-21T02:10:40.595Z,15.80
2023-05-21T02:13:11.585Z,15.80
2023-05-21T02:15:42.977Z,15.70
2023-05-21T02:18:11.326Z,15.80
2023-05-21T02:20:49.617Z,15.70
2023-05-21T02:23:20.424Z,15.70
2023-05-21T02:25:49.771Z,15.70
2023-05-21T02:28:17.660Z,15.80
2023-05-21T02:30:45.641Z,15.90
2023-05-21T02:33:17.689Z,16.10
2023-05-21T02:35:45.972Z,16.10
2023-05-21T02:38:19.454Z,16.10
2023-05-21T02:40:48.823Z,16.10
2023-05-21T02:43:16.824Z,16.10
2023-05-21T02:45:44.871Z,16.00
2023-05-21T02:48:12.864Z,16.00
2023-05-21T02:50:40.815Z,16.00
2023-05-21T02:53:11.568Z,16.10
2023-05-21T02:55:39.550Z,16.00
2023-05-21T02:58:17.774Z,16.00
2023-05-21T03:00:48.798Z,16.00
2023-05-21T03:03:22.850Z,16.00
2023-05-21T03:05:50.825Z,16.00
2023-05-21T03:08:24.709Z,16.10
2023-05-21T03:10:55.837Z,16.10
2023-05-21T03:13:25.098Z,16.00
2023-05-21T03:15:56.120Z,16.00
2023-05-21T03:18:46.041Z,16.00
2023-05-21T03:21:22.585Z,16.00
2023-05-21T03:23:51.384Z,16.00
2023-05-21T03:26:19.293Z,15.90
2023-05-21T03:28:51.604Z,15.80
2023-05-21T03:31:31.382Z,15.80
2023-05-21T03:33:59.329Z,15.70
2023-05-21T03:36:31.185Z,15.80
2023-05-21T03:39:05.446Z,15.70
2023-05-21T03:41:36.212Z,15.70
2023-05-21T03:44:08.595Z,15.70
2023-05-21T03:46:36.755Z,15.70
2023-05-21T03:49:10.966Z,15.60
2023-05-21T03:51:39.548Z,15.60
2023-05-21T03:54:07.595Z,15.50
2023-05-21T03:56:35.657Z,15.50
2023-05-21T03:59:08.145Z,15.60
2023-05-21T04:01:39.038Z,15.30
2023-05-21T04:04:07.114Z,15.30
2023-05-21T04:06:38.269Z,15.40
2023-05-21T04:09:06.178Z,15.50
2023-05-21T04:11:34.148Z,15.60
2023-05-21T04:14:02.838Z,15.50
2023-05-21T04:16:50.043Z,15.50
2023-05-21T04:19:17.989Z,15.50
2023-05-21T04:21:56.122Z,15.70
2023-05-21T04:24:24.015Z,15.80
2023-05-21T04:26:56.123Z,15.90
2023-05-21T04:29:26.805Z,15.90
2023-05-21T04:31:56.102Z,16.10
2023-05-21T04:34:26.830Z,16.10
2023-05-21T04:36:56.956Z,15.90
2023-05-21T04:39:24.958Z,15.90
2023-05-21T04:41:54.802Z,15.80
2023-05-21T04:44:25.795Z,15.90
2023-05-21T04:46:55.165Z,16.00
2023-05-21T04:49:23.190Z,15.90
2023-05-21T04:51:59.159Z,15.80
2023-05-21T04:54:29.548Z,15.80
2023-05-21T04:56:58.078Z,15.70
2023-05-21T04:59:25.980Z,15.50
2023-05-21T05:01:55.476Z,15.60
2023-05-21T05:04:23.426Z,15.60
2023-05-21T05:06:51.871Z,15.70
2023-05-21T05:09:25.116Z,15.90
2023-05-21T05:11:53.044Z,16.10
2023-05-21T05:14:20.960Z,16.10
2023-05-21T05:16:49.075Z,15.90
2023-05-21T05:19:18.457Z,15.90
2023-05-21T05:21:46.409Z,15.70
2023-05-21T05:24:14.292Z,15.60
2023-05-21T05:26:45.374Z,15.30
2023-05-21T05:29:16.364Z,15.20
2023-05-21T05:31:44.317Z,15.20
2023-05-21T05:34:15.266Z,15.20
2023-05-21T05:36:44.567Z,15.20
2023-05-21T05:39:12.493Z,15.30
2023-05-21T05:41:49.002Z,15.10
2023-05-21T05:44:16.922Z,15.00
2023-05-21T05:46:44.861Z,14.90
2023-05-21T05:49:13.606Z,14.70
2023-05-21T05:51:51.845Z,14.30
2023-05-21T05:54:20.337Z,14.30
2023-05-21T05:56:48.260Z,14.30
2023-05-21T05:59:19.001Z,14.30
2023-05-21T06:01:52.725Z,14.50
2023-05-21T06:04:20.624Z,14.50
2023-05-21T06:06:48.567Z,14.40
2023-05-21T06:09:17.856Z,14.20
2023-05-21T06:11:48.800Z,14.30
2023-05-21T06:14:16.800Z,14.30
2023-05-21T06:16:54.748Z,14.40
2023-05-21T06:19:34.665Z,14.40
2023-05-21T06:22:02.638Z,14.40
2023-05-21T06:24:31.879Z,14.40
2023-05-21T06:27:00.011Z,14.40
2023-05-21T06:29:27.907Z,14.50
2023-05-21T06:31:55.881Z,14.50
2023-05-21T06:34:23.784Z,14.40
2023-05-21T06:36:54.442Z,14.40
2023-05-21T06:39:28.517Z,14.40
2023-05-21T06:41:57.776Z,14.30
2023-05-21T06:44:28.570Z,14.40
2023-05-21T06:46:56.525Z,14.50
2023-05-21T06:49:27.540Z,14.50
2023-05-21T06:51:58.418Z,14.70
2023-05-21T06:54:27.042Z,14.70
2023-05-21T06:57:01.880Z,14.50
2023-05-21T06:59:32.549Z,14.50
2023-05-21T07:02:02.295Z,14.50
2023-05-21T07:04:37.246Z,14.50
2023-05-21T07:07:05.547Z,14.60
2023-05-21T07:09:33.472Z,14.60
2023-05-21T07:12:03.181Z,14.60
2023-05-21T07:14:34.268Z,14.70
2023-05-21T07:17:02.267Z,14.80
2023-05-21T07:19:39.557Z,14.90
2023-05-21T07:22:07.654Z,14.90
2023-05-21T07:24:35.665Z,15.00
2023-05-21T07:27:14.356Z,15.10
2023-05-21T07:29:52.408Z,15.20
2023-05-21T07:32:20.412Z,15.30
2023-05-21T07:35:02.283Z,15.50
2023-05-21T07:37:30.265Z,15.50
2023-05-21T07:39:59.262Z,15.50
2023-05-21T07:42:28.561Z,15.50
2023-05-21T07:44:56.481Z,15.50
2023-05-21T07:47:24.452Z,15.40
2023-05-21T07:49:55.166Z,15.40
2023-05-21T07:52:26.398Z,15.50
2023-05-21T07:54:54.357Z,15.60
2023-05-21T07:57:23.242Z,15.70
2023-05-21T07:59:58.874Z,15.70
2023-05-21T08:02:32.761Z,15.70
2023-05-21T08:05:01.529Z,15.80
2023-05-21T08:07:29.528Z,15.90
2023-05-21T08:09:57.432Z,15.90
2023-05-21T08:12:25.418Z,15.90
2023-05-21T08:14:53.329Z,16.00
2023-05-21T08:17:22.599Z,16.00
2023-05-21T08:19:50.770Z,16.00
2023-05-21T08:22:18.777Z,16.00
2023-05-21T08:24:52.541Z,16.10
2023-05-21T08:27:21.215Z,16.10
2023-05-21T08:29:49.137Z,16.20
2023-05-21T08:32:17.100Z,16.30
2023-05-21T08:34:46.436Z,16.40
2023-05-21T08:37:14.339Z,16.40
2023-05-21T08:39:42.343Z,16.50
2023-05-21T08:42:32.869Z,16.60
2023-05-21T08:45:07.291Z,16.60
2023-05-21T08:47:37.235Z,16.80
2023-05-21T08:50:11.933Z,16.90
2023-05-21T08:52:39.987Z,16.90
2023-05-21T08:55:09.085Z,17.00
2023-05-21T08:57:37.981Z,17.00
2023-05-21T09:00:07.438Z,17.00
2023-05-21T09:02:40.754Z,17.00
2023-05-21T09:05:11.325Z,17.10
2023-05-21T09:07:46.699Z,17.10
2023-05-21T09:10:15.769Z,17.10
2023-05-21T09:12:48.342Z,17.20
2023-05-21T09:15:19.458Z,17.30
2023-05-21T09:17:55.649Z,17.40
2023-05-21T09:20:28.036Z,17.50
2023-05-21T09:22:56.375Z,17.50
2023-05-21T09:25:27.981Z,17.50
2023-05-21T09:27:57.342Z,17.50
2023-05-21T09:30:28.537Z,17.60
2023-05-21T09:32:59.427Z,17.60
2023-05-21T09:35:28.900Z,17.70
2023-05-21T09:37:57.245Z,17.80
2023-05-21T09:40:25.902Z,17.70
2023-05-21T09:42:55.915Z,17.70
2023-05-21T09:45:24.771Z,17.70
2023-05-21T09:47:53.814Z,17.80
2023-05-21T09:50:23.513Z,17.80
2023-05-21T09:52:53.707Z,17.90
2023-05-21T09:55:24.044Z,17.90
2023-05-21T09:57:59.203Z,17.90
2023-05-21T10:00:29.619Z,18.00
2023-05-21T10:02:58.795Z,18.00
2023-05-21T10:05:28.572Z,18.00
2023-05-21T10:08:02.081Z,18.00
2023-05-21T10:10:36.526Z,18.10
2023-05-21T10:13:07.714Z,18.20
2023-05-21T10:15:43.621Z,18.10
2023-05-21T10:18:13.397Z,18.20
2023-05-21T10:20:42.232Z,18.30
2023-05-21T10:23:15.107Z,18.40
2023-05-21T10:25:43.614Z,18.40
2023-05-21T10:28:26.456Z,18.40
2023-05-21T10:30:54.784Z,18.30
2023-05-21T10:33:25.129Z,18.30
2023-05-21T10:36:00.236Z,18.20
2023-05-21T10:38:31.367Z,18.30
2023-05-21T10:41:04.794Z,18.40
2023-05-21T10:43:59.424Z,18.40
2023-05-21T10:46:54.135Z,18.40
2023-05-21T10:49:57.622Z,18.50
2023-05-21T10:52:51.365Z,18.60
2023-05-21T10:55:36.237Z,18.70
2023-05-21T10:58:21.608Z,18.80
2023-05-21T11:00:50.577Z,18.70
2023-05-21T11:03:24.341Z,18.70
2023-05-21T11:05:56.831Z,18.70
2023-05-21T11:08:26.218Z,18.80
2023-05-21T11:10:58.165Z,18.90
2023-05-21T11:13:27.046Z,19.00
2023-05-21T11:16:08.283Z,19.00
2023-05-21T11:19:06.492Z,19.00
2023-05-21T11:21:37.036Z,19.10
2023-05-21T11:24:10.880Z,19.10
2023-05-21T11:27:06.709Z,19.10
2023-05-21T11:29:42.565Z,19.10
2023-05-21T11:32:11.612Z,19.10
2023-05-21T11:34:41.784Z,19.10
2023-05-21T11:37:51.501Z,19.20
2023-05-21T11:40:26.615Z,19.20
2023-05-21T11:43:05.999Z,19.30
2023-05-21T11:45:37.508Z,19.30
2023-05-21T11:48:07.327Z,19.30
2023-05-21T11:50:42.388Z,19.30
2023-05-21T11:53:12.226Z,19.40
2023-05-21T11:55:43.247Z,19.50
2023-05-21T11:58:16.394Z,19.60
2023-05-21T12:00:44.408Z,19.60
2023-05-21T12:03:15.531Z,19.70
2023-05-21T12:05:47.281Z,19.80
2023-05-21T12:08:15.782Z,19.90
2023-05-21T12:10:46.859Z,20.00
2023-05-21T12:13:23.360Z,20.10
2023-05-21T12:15:54.815Z,20.20
2023-05-21T12:18:26.049Z,20.20
2023-05-21T12:20:56.593Z,20.30
2023-05-21T12:23:25.557Z,20.30
2023-05-21T12:25:54.388Z,20.40
2023-05-21T12:28:24.596Z,20.50
2023-05-21T12:30:55.522Z,20.40
2023-05-21T12:33:26.065Z,20.40
2023-05-21T12:35:54.138Z,20.40
2023-05-21T12:38:22.290Z,20.50
2023-05-21T12:40:55.545Z,20.50
2023-05-21T12:43:24.917Z,20.50
2023-05-21T12:45:53.096Z,20.50
2023-05-21T12:48:28.581Z,20.60
2023-05-21T12:50:56.486Z,20.60
2023-05-21T12:53:37.863Z,20.60
2023-05-21T12:56:10.619Z,20.70
2023-05-21T12:58:43.634Z,20.70
2023-05-21T13:01:13.023Z,20.70
2023-05-21T13:03:43.086Z,20.80
2023-05-21T13:06:14.564Z,20.80
2023-05-21T13:08:48.676Z,20.90
2023-05-21T13:11:16.570Z,21.00
2023-05-21T13:13:45.801Z,21.00
2023-05-21T13:16:13.765Z,21.10
2023-05-21T13:18:41.785Z,21.20
2023-05-21T13:21:12.752Z,21.20
2023-05-21T13:23:40.672Z,21.30
2023-05-21T13:26:11.719Z,21.30
2023-05-21T13:28:42.939Z,21.20
2023-05-21T13:31:18.347Z,21.20
2023-05-21T13:33:52.464Z,21.30
2023-05-21T13:36:20.369Z,21.30
2023-05-21T13:38:57.373Z,21.30
2023-05-21T13:41:27.491Z,21.30
2023-05-21T13:43:58.929Z,21.30
2023-05-21T13:46:28.337Z,21.40
2023-05-21T13:48:56.386Z,21.40
2023-05-21T13:51:38.081Z,21.50
2023-05-21T13:54:10.076Z,21.50
2023-05-21T13:56:38.716Z,21.50
2023-05-21T13:59:08.752Z,21.60
2023-05-21T14:01:38.037Z,21.70
2023-05-21T14:04:11.841Z,21.60
2023-05-21T14:06:45.567Z,21.70
2023-05-21T14:09:14.114Z,21.70
2023-05-21T14:11:42.114Z,21.70
2023-05-21T14:14:09.993Z,21.80
2023-05-21T14:16:44.560Z,21.90
2023-05-21T14:19:12.484Z,21.90
2023-05-21T14:21:40.447Z,22.00
2023-05-21T14:24:08.576Z,22.00
2023-05-21T14:26:41.435Z,22.10
2023-05-21T14:29:12.766Z,22.10
2023-05-21T14:31:42.107Z,22.10
2023-05-21T14:34:10.140Z,22.10
2023-05-21T14:36:38.132Z,22.10
2023-05-21T14:39:06.193Z,22.10
2023-05-21T14:41:34.134Z,22.10
2023-05-21T14:44:05.355Z,22.20
2023-05-21T14:46:33.346Z,22.20
2023-05-21T14:49:03.673Z,22.30
2023-05-21T14:51:32.395Z,22.40
2023-05-21T14:54:06.182Z,22.40
2023-05-21T14:56:34.152Z,22.50
2023-05-21T14:59:02.101Z,22.50
2023-05-21T15:01:30.136Z,22.50
2023-05-21T15:03:58.628Z,22.50
2023-05-21T15:06:28.032Z,22.50
2023-05-21T15:09:01.823Z,22.60
2023-05-21T15:11:29.733Z,22.60
2023-05-21T15:13:57.733Z,22.70
2023-05-21T15:16:31.528Z,22.70
2023-05-21T15:19:08.789Z,22.80
2023-05-21T15:21:52.410Z,22.80
2023-05-21T15:24:22.882Z,22.90
2023-05-21T15:26:50.827Z,22.90
2023-05-21T15:29:29.291Z,22.90
2023-05-21T15:31:57.262Z,22.90
2023-05-21T15:34:25.262Z,22.90
2023-05-21T15:36:54.649Z,22.90
2023-05-21T15:39:25.791Z,22.80
2023-05-21T15:42:02.610Z,22.90
2023-05-21T15:44:30.522Z,22.90
2023-05-21T15:46:58.642Z,22.90
2023-05-21T15:49:26.678Z,22.90
2023-05-21T15:51:58.272Z,22.90
2023-05-21T15:54:26.297Z,22.80
2023-05-21T15:56:54.240Z,22.80
2023-05-21T15:59:27.886Z,22.80
2023-05-21T16:01:57.519Z,22.80
2023-05-21T16:04:25.493Z,22.80
2023-05-21T16:06:54.743Z,22.70
2023-05-21T16:09:25.402Z,22.80
2023-05-21T16:11:53.323Z,22.70
2023-05-21T16:14:29.702Z,22.80
2023-05-21T16:17:00.002Z,22.80
2023-05-21T16:19:28.303Z,22.80
2023-05-21T16:21:57.689Z,22.80
2023-05-21T16:24:42.830Z,22.80
2023-05-21T16:27:10.738Z,22.70
2023-05-21T16:29:40.742Z,22.70
2023-05-21T16:32:21.331Z,22.70
2023-05-21T16:34:49.422Z,22.70
2023-05-21T16:37:22.180Z,22.70
2023-05-21T16:39:52.521Z,22.70
2023-05-21T16:42:22.584Z,22.70
2023-05-21T16:44:59.504Z,22.70
2023-05-21T16:47:30.379Z,22.70
2023-05-21T16:49:59.630Z,22.70
2023-05-21T16:52:28.874Z,22.60
2023-05-21T16:54:56.756Z,22.60
2023-05-21T16:57:27.696Z,22.60
2023-05-21T16:59:55.564Z,22.70
2023-05-21T17:02:24.198Z,22.70
2023-05-21T17:04:52.169Z,22.70
2023-05-21T17:07:23.098Z,22.70
2023-05-21T17:09:52.406Z,22.70
2023-05-21T17:12:20.384Z,22.70
2023-05-21T17:14:58.060Z,22.80
2023-05-21T17:17:28.960Z,22.90
2023-05-21T17:20:04.012Z,22.90
2023-05-21T17:22:47.481Z,23.10
2023-05-21T17:25:20.110Z,23.00
2023-05-21T17:27:48.021Z,23.00
2023-05-21T17:30:24.782Z,23.00
2023-05-21T17:32:52.758Z,23.00
2023-05-21T17:35:21.021Z,23.00
2023-05-21T17:37:48.934Z,23.10
2023-05-21T17:40:21.116Z,23.10
2023-05-21T17:42:52.265Z,23.10
2023-05-21T17:45:25.521Z,23.00
2023-05-21T17:47:59.664Z,23.00
2023-05-21T17:50:37.233Z,23.00
2023-05-21T17:53:05.157Z,23.10
2023-05-21T17:55:34.569Z,23.10
2023-05-21T17:58:06.408Z,23.20
2023-05-21T18:00:34.383Z,23.20
2023-05-21T18:03:04.611Z,23.20
2023-05-21T18:05:40.336Z,23.00
2023-05-21T18:08:09.902Z,22.90
2023-05-21T18:10:39.216Z,22.80
2023-05-21T18:13:10.238Z,22.80
2023-05-21T18:15:38.534Z,22.90
2023-05-21T18:18:06.748Z,22.80
2023-05-21T18:20:37.837Z,22.80
2023-05-21T18:23:09.240Z,22.90
2023-05-21T18:25:37.149Z,23.10
2023-05-21T18:28:06.639Z,23.10
2023-05-21T18:30:38.025Z,23.10
2023-05-21T18:33:08.200Z,23.20
2023-05-21T18:35:38.294Z,23.10
2023-05-21T18:38:09.693Z,23.00
2023-05-21T18:40:38.174Z,22.90
2023-05-21T18:43:07.734Z,22.90
2023-05-21T18:45:35.797Z,22.90
2023-05-21T18:48:03.951Z,22.90
2023-05-21T18:50:32.583Z,22.90
2023-05-21T18:53:00.669Z,23.00
2023-05-21T18:55:31.585Z,23.00
2023-05-21T18:58:06.733Z,23.10
2023-05-21T19:00:43.291Z,23.20
2023-05-21T19:03:12.945Z,23.20
2023-05-21T19:05:40.925Z,23.20
2023-05-21T19:08:08.837Z,23.30
2023-05-21T19:10:39.649Z,23.40
2023-05-21T19:13:09.646Z,23.40
2023-05-21T19:15:40.832Z,23.40
2023-05-21T19:18:08.932Z,23.40
2023-05-21T19:20:39.852Z,23.50
2023-05-21T19:23:07.901Z,23.50
2023-05-21T19:25:36.112Z,23.40
2023-05-21T19:28:06.476Z,23.40
2023-05-21T19:30:36.488Z,23.40
2023-05-21T19:33:05.380Z,23.30
2023-05-21T19:35:33.354Z,23.30
2023-05-21T19:38:03.426Z,23.00
2023-05-21T19:40:36.097Z,22.70
2023-05-21T19:43:04.179Z,22.60
2023-05-21T19:45:38.842Z,22.40
2023-05-21T19:48:09.560Z,22.30
2023-05-21T19:50:37.705Z,22.10
2023-05-21T19:53:08.144Z,22.10
2023-05-21T19:55:41.650Z,21.90
2023-05-21T19:58:13.253Z,21.60
2023-05-21T20:00:45.277Z,21.40
2023-05-21T20:03:13.584Z,21.10
2023-05-21T20:05:41.491Z,20.90
2023-05-21T20:08:09.488Z,20.80
2023-05-21T20:10:40.422Z,20.70
2023-05-21T20:13:08.973Z,20.70
2023-05-21T20:15:38.654Z,20.70
2023-05-21T20:18:07.965Z,20.70
2023-05-21T20:20:38.005Z,20.80
2023-05-21T20:23:06.169Z,20.80
2023-05-21T20:25:34.264Z,20.90
2023-05-21T20:28:02.632Z,21.20
2023-05-21T20:30:36.322Z,21.60
2023-05-21T20:33:04.834Z,21.70
2023-05-21T20:35:45.605Z,21.70
2023-05-21T20:38:15.921Z,21.60
2023-05-21T20:40:49.606Z,21.70
2023-05-21T20:43:20.311Z,21.60
2023-05-21T20:45:51.398Z,21.50
2023-05-21T20:48:24.830Z,21.30
2023-05-21T20:50:57.442Z,21.10
2023-05-21T20:53:28.058Z,21.20
2023-05-21T20:55:56.003Z,21.30
2023-05-21T20:58:26.979Z,21.20
2023-05-21T21:01:06.764Z,21.20
2023-05-21T21:03:41.093Z,21.20
2023-05-21T21:06:13.831Z,20.80
2023-05-21T21:08:50.032Z,20.30
2023-05-21T21:11:21.812Z,20.20
2023-05-21T21:13:49.907Z,20.40
2023-05-21T21:16:33.187Z,20.30
2023-05-21T21:19:01.458Z,20.20
2023-05-21T21:21:31.708Z,20.30
2023-05-21T21:23:59.615Z,20.40
2023-05-21T21:26:27.672Z,20.50
2023-05-21T21:28:56.286Z,20.50
2023-05-21T21:31:25.063Z,20.40
2023-05-21T21:33:53.222Z,20.60
2023-05-21T21:36:24.043Z,20.70
2023-05-21T21:38:53.352Z,21.10
2023-05-21T21:41:24.399Z,21.30
2023-05-21T21:43:55.427Z,21.40
2023-05-21T21:46:29.967Z,21.20
2023-05-21T21:48:58.007Z,21.20
2023-05-21T21:51:25.931Z,21.20
2023-05-21T21:53:57.996Z,21.40
2023-05-21T21:56:26.140Z,21.40
2023-05-21T21:58:57.092Z,21.50
2023-05-21T22:01:31.215Z,21.60
2023-05-21T22:03:59.174Z,21.80
2023-05-21T22:06:27.510Z,22.00
2023-05-21T22:08:56.877Z,22.10
2023-05-21T22:11:24.838Z,22.20
2023-05-21T22:13:56.110Z,22.20
2023-05-21T22:16:34.090Z,22.60
2023-05-21T22:19:02.315Z,22.90
2023-05-21T22:21:34.861Z,22.90
2023-05-21T22:24:09.487Z,22.40
2023-05-21T22:26:40.674Z,22.10
2023-05-21T22:29:08.580Z,21.80
2023-05-21T22:31:36.557Z,21.90
2023-05-21T22:34:13.484Z,22.00
2023-05-21T22:36:55.396Z,22.00
2023-05-21T22:39:24.662Z,22.10
2023-05-21T22:42:00.058Z,22.20
2023-05-21T22:44:30.900Z,22.30
2023-05-21T22:47:04.613Z,22.30
2023-05-21T22:49:32.671Z,22.30
2023-05-21T22:52:05.325Z,22.40
2023-05-21T22:54:37.702Z,22.30
2023-05-21T22:57:06.327Z,22.30
2023-05-21T22:59:37.361Z,22.20
2023-05-21T23:02:05.802Z,22.10
2023-05-21T23:04:48.309Z,22.10
2023-05-21T23:07:18.736Z,22.10
2023-05-21T23:09:56.266Z,22.10
2023-05-21T23:12:29.967Z,22.10
2023-05-21T23:15:03.333Z,22.00
2023-05-21T23:17:31.280Z,22.00
2023-05-21T23:19:59.344Z,22.00
2023-05-21T23:22:31.566Z,22.00
2023-05-21T23:25:00.855Z,22.00
2023-05-21T23:27:29.106Z,22.10
2023-05-21T23:29:57.006Z,22.20
2023-05-21T23:32:25.208Z,22.30
2023-05-21T23:34:56.813Z,22.30
2023-05-21T23:37:27.559Z,22.30
2023-05-21T23:39:55.531Z,22.20
2023-05-21T23:42:36.824Z,22.10
2023-05-21T23:45:08.427Z,22.10
2023-05-21T23:47:39.377Z,22.00
2023-05-21T23:50:08.651Z,22.00
2023-05-21T23:52:36.556Z,21.90
2023-05-21T23:55:04.600Z,21.90
2023-05-21T23:57:48.805Z,21.90
